Terminal Aerodrome Forecast
Issued by NWS Charleston, SC

Home | Current Version | Previous Version | Text Only | Print | Product List | Glossary On
Versions: 1 2 3 4 5 6 7 8 9 10 11 12 13
477
FTUS42 KCHS 260520
TAFCHS
TAF
KCHS 260520Z 2606/2706 13004KT P6SM FEW040 SCT200
     FM261500 15007KT P6SM SCT050 BKN070
     FM261900 16011KT P6SM SCT080
     FM270100 13005KT P6SM SCT090=

USA.gov is the U.S. government's official web portal to all federal, state and local government web resources and services.